Flinterbothnia — PBLG — position and weather

sailwx.info

Track history (hours):
 
Tides and Currents Weather Stations Pressure Air Temp Water Temp Dewpoint Dewpoint Depression Visibility Wind Speed Wind Dir Waves Ship Positions

Flinterbothnia

Last reported at 2014-Nov-20 17:21 UTC. Time now 2014-Nov-23 09:59 UTC.
Position N 55°15' W 005°42'.

Length 82 m; draft 5.3 m.

Type: Cargo ship. MMSI: 244741000.

Date/timePositionNaut miles runAvg speedWind from/ knotsBaromVisibWave heightAir tempDewpointWater temp
2014-Nov-20 17:21N 55°15' W 005°42'911.4
2014-Nov-20 16:33N 55°15' W 005°57'1010.1
2014-Nov-20 15:33N 55°21' W 006°11'9 9.4
2014-Nov-20 14:33N 55°28' W 006°22'9 9.1
2014-Nov-20 13:33N 55°36' W 006°30'8 7.8
2014-Nov-20 12:33N 55°43' W 006°38'9 8.7
2014-Nov-20 11:30N 55°50' W 006°46'148 9.1
2014-Nov-19 19:08N 58°15' W 005°42'86 9.8
2014-Nov-19 10:22N 58°43' W 003°07'1111.3
2014-Nov-19 09:25N 58°42' W 002°47'43310.8
2014-Nov-17 17:24N 57°47' E 010°49'1011.7
2014-Nov-17 16:33N 57°40' E 011°03'1111.5
2014-Nov-17 15:34N 57°32' E 011°18'1111.1
2014-Nov-17 14:33N 57°23' E 011°29'1211.7
2014-Nov-17 13:33N 57°12' E 011°37'5611.2
2014-Nov-17 08:33N 56°21' E 012°17'1211.5
2014-Nov-17 07:33N 56°11' E 012°29'1212.4
2014-Nov-17 06:33N 56°01' E 012°41'1110.8
2014-Nov-17 05:34N 55°50' E 012°44'1110.6
2014-Nov-17 04:34N 55°40' E 012°42'1110.9
2014-Nov-17 03:34N 55°29' E 012°42'1010.3
2014-Nov-17 02:34N 55°18' E 012°43'1110.5
2014-Nov-17 01:33N 55°16' E 013°01'4410.5
2014-Nov-16 21:21N 55°16' E 014°18'910.2
2014-Nov-16 20:26N 55°23' E 014°28'9 9.9
2014-Nov-16 19:30N 55°29' E 014°40'9 9.9
2014-Nov-16 18:33N 55°34' E 014°54'53 9.9
2014-Nov-16 13:12N 56°00' E 016°16'  
2014-Nov-13 10:25N 55°34' E 015°16'1011.0
2014-Nov-13 09:30N 55°29' E 014°60'1111.2
2014-Nov-13 08:30N 55°24' E 014°43'1111.0
2014-Nov-13 07:31N 55°16' E 014°30'1311.3
2014-Nov-13 06:20N 55°05' E 014°16'7510.7
2014-Nov-12 23:23N 54°32' E 012°20'910.5
2014-Nov-12 22:30N 54°24' E 012°10'1111.1
2014-Nov-12 21:30N 54°24' E 011°51'3510.4
2014-Nov-12 18:08N 54°33' E 010°52'711.6
2014-Nov-12 17:33N 54°31' E 010°41'1111.2
2014-Nov-12 16:33N 54°29' E 010°23'1010.2
2014-Nov-12 15:33N 54°22' E 010°09'1 1.3
2014-Nov-12 14:33N 54°22' E 010°07'7 7.4
2014-Nov-12 13:33N 54°21' E 009°55'7 7.2
2014-Nov-12 12:32N 54°19' E 009°43'8 7.9
2014-Nov-12 11:33N 54°12' E 009°34'10 8.5
2014-Nov-12 10:24N 54°08' E 009°20'6 6.6
2014-Nov-12 09:33N 54°02' E 009°18'1 0.9
2014-Nov-12 08:33N 54°01' E 009°18'8 8.5
2014-Nov-12 07:33N 53°54' E 009°10'3 3.4
2014-Nov-12 06:33N 53°53' E 009°05'9 9.0
2014-Nov-12 05:33N 53°50' E 008°50'9 9.2
2014-Nov-12 04:34N 53°56' E 008°39'9 9.3
2014-Nov-12 03:33N 53°59' E 008°23'1010.4
2014-Nov-12 02:33N 53°58' E 008°06'3710.7
2014-Nov-11 23:07N 53°50' E 007°05'711.4
2014-Nov-11 22:29N 53°48' E 006°53'1211.5
2014-Nov-11 21:24N 53°45' E 006°33'910.2
2014-Nov-11 20:33N 53°38' E 006°24'9 9.2
2014-Nov-11 19:33N 53°35' E 006°38'1211.9
2014-Nov-11 18:33N 53°27' E 006°53'1111.1
2014-Nov-11 17:34N 53°20' E 007°08'1010.3
2014-Nov-11 16:34N 53°16' E 007°24'8 8.4
2014-Nov-11 15:33N 53°07' E 007°22'1 1.2
2014-Nov-11 14:21N 53°06' E 007°22'0 0.0
2014-Nov-11 13:33N 53°06' E 007°22'0 0.0
2014-Nov-11 12:09N 53°06' E 007°22'0 0.0
2014-Nov-11 10:27N 53°06' E 007°22'0 0.0
2014-Nov-11 06:12N 53°06' E 007°22'0 0.0
2014-Nov-11 05:30N 53°06' E 007°22'0 0.0
2014-Nov-11 01:12N 53°06' E 007°22'0 0.0
2014-Nov-10 19:15N 53°06' E 007°22'0 0.0
2014-Nov-10 18:22N 53°06' E 007°22'0 0.0
2014-Nov-10 17:33N 53°06' E 007°22'  
Track history (hours):
 
Tides and Currents Weather Stations Pressure Air Temp Water Temp Dewpoint Dewpoint Depression Visibility Wind Speed Wind Dir Waves Ship Positions

Flinterbothnia

Last reported at 2014-Nov-20 17:21 UTC. Time now 2014-Nov-23 09:59 UTC.
Position N 55°15' W 005°42'.

Length 82 m; draft 5.3 m.

Type: Cargo ship. MMSI: 244741000.

Date/timePositionNaut miles runAvg speedWind from/ knotsBaromVisibWave heightAir tempDewpointWater temp
2014-Nov-20 17:21N 55°15' W 005°42'911.4
2014-Nov-20 16:33N 55°15' W 005°57'1010.1
2014-Nov-20 15:33N 55°21' W 006°11'9 9.4
2014-Nov-20 14:33N 55°28' W 006°22'9 9.1
2014-Nov-20 13:33N 55°36' W 006°30'8 7.8
2014-Nov-20 12:33N 55°43' W 006°38'9 8.7
2014-Nov-20 11:30N 55°50' W 006°46'148 9.1
2014-Nov-19 19:08N 58°15' W 005°42'86 9.8
2014-Nov-19 10:22N 58°43' W 003°07'1111.3
2014-Nov-19 09:25N 58°42' W 002°47'43310.8
2014-Nov-17 17:24N 57°47' E 010°49'1011.7
2014-Nov-17 16:33N 57°40' E 011°03'1111.5
2014-Nov-17 15:34N 57°32' E 011°18'1111.1
2014-Nov-17 14:33N 57°23' E 011°29'1211.7
2014-Nov-17 13:33N 57°12' E 011°37'5611.2
2014-Nov-17 08:33N 56°21' E 012°17'1211.5
2014-Nov-17 07:33N 56°11' E 012°29'1212.4
2014-Nov-17 06:33N 56°01' E 012°41'1110.8
2014-Nov-17 05:34N 55°50' E 012°44'1110.6
2014-Nov-17 04:34N 55°40' E 012°42'1110.9
2014-Nov-17 03:34N 55°29' E 012°42'1010.3
2014-Nov-17 02:34N 55°18' E 012°43'1110.5
2014-Nov-17 01:33N 55°16' E 013°01'4410.5
2014-Nov-16 21:21N 55°16' E 014°18'910.2
2014-Nov-16 20:26N 55°23' E 014°28'9 9.9
2014-Nov-16 19:30N 55°29' E 014°40'9 9.9
2014-Nov-16 18:33N 55°34' E 014°54'53 9.9
2014-Nov-16 13:12N 56°00' E 016°16'  
2014-Nov-13 10:25N 55°34' E 015°16'1011.0
2014-Nov-13 09:30N 55°29' E 014°60'1111.2
2014-Nov-13 08:30N 55°24' E 014°43'1111.0
2014-Nov-13 07:31N 55°16' E 014°30'1311.3
2014-Nov-13 06:20N 55°05' E 014°16'7510.7
2014-Nov-12 23:23N 54°32' E 012°20'910.5
2014-Nov-12 22:30N 54°24' E 012°10'1111.1
2014-Nov-12 21:30N 54°24' E 011°51'3510.4
2014-Nov-12 18:08N 54°33' E 010°52'711.6
2014-Nov-12 17:33N 54°31' E 010°41'1111.2
2014-Nov-12 16:33N 54°29' E 010°23'1010.2
2014-Nov-12 15:33N 54°22' E 010°09'1 1.3
2014-Nov-12 14:33N 54°22' E 010°07'7 7.4
2014-Nov-12 13:33N 54°21' E 009°55'7 7.2
2014-Nov-12 12:32N 54°19' E 009°43'8 7.9
2014-Nov-12 11:33N 54°12' E 009°34'10 8.5
2014-Nov-12 10:24N 54°08' E 009°20'6 6.6
2014-Nov-12 09:33N 54°02' E 009°18'1 0.9
2014-Nov-12 08:33N 54°01' E 009°18'8 8.5
2014-Nov-12 07:33N 53°54' E 009°10'3 3.4
2014-Nov-12 06:33N 53°53' E 009°05'9 9.0
2014-Nov-12 05:33N 53°50' E 008°50'9 9.2
2014-Nov-12 04:34N 53°56' E 008°39'9 9.3
2014-Nov-12 03:33N 53°59' E 008°23'1010.4
2014-Nov-12 02:33N 53°58' E 008°06'3710.7
2014-Nov-11 23:07N 53°50' E 007°05'711.4
2014-Nov-11 22:29N 53°48' E 006°53'1211.5
2014-Nov-11 21:24N 53°45' E 006°33'910.2
2014-Nov-11 20:33N 53°38' E 006°24'9 9.2
2014-Nov-11 19:33N 53°35' E 006°38'1211.9
2014-Nov-11 18:33N 53°27' E 006°53'1111.1
2014-Nov-11 17:34N 53°20' E 007°08'1010.3
2014-Nov-11 16:34N 53°16' E 007°24'8 8.4
2014-Nov-11 15:33N 53°07' E 007°22'1 1.2
2014-Nov-11 14:21N 53°06' E 007°22'0 0.0
2014-Nov-11 13:33N 53°06' E 007°22'0 0.0
2014-Nov-11 12:09N 53°06' E 007°22'0 0.0
2014-Nov-11 10:27N 53°06' E 007°22'0 0.0
2014-Nov-11 06:12N 53°06' E 007°22'0 0.0
2014-Nov-11 05:30N 53°06' E 007°22'0 0.0
2014-Nov-11 01:12N 53°06' E 007°22'0 0.0
2014-Nov-10 19:15N 53°06' E 007°22'0 0.0
2014-Nov-10 18:22N 53°06' E 007°22'0 0.0
2014-Nov-10 17:33N 53°06' E 007°22'  

Dump ship's entire track history